Chellissa — WAR3497 — position and weather

sailwx.info

Track history (hours):
 
Tides and Currents Weather Stations Pressure Air Temp Water Temp Dewpoint Dewpoint Depression Visibility Wind Speed Wind Dir Waves Ship Positions

Chellissa

Owner: CHELLISSA INC, CHARLESTON, OR. More information available from US FCC via Universal Licensing System and Coast Guard Vessel Documentation Center.

Last reported at 2017-Nov-30 21:43 UTC. Time now 2017-Dec-16 15:07 UTC.
Position N 54°22' W 130°36'.
Warning: this ship's position is 15 days out of date.

Length 28 m; draft 4 m.

Type: Fishing. MMSI: 367162190.

Date/timePositionNaut miles runAvg speedWind from/ knotsBaromVisibWave heightAir tempDewpointWater temp
2017-Nov-30 21:43N 54°22' W 130°36'311.2
2017-Nov-30 21:30N 54°20' W 130°35'510.8
2017-Nov-30 21:00N 54°15' W 130°31'510.5
2017-Nov-30 20:30N 54°10' W 130°27'510.3
2017-Nov-30 20:00N 54°06' W 130°21'5 9.9
2017-Nov-30 19:30N 54°03' W 130°15'510.2
2017-Nov-30 19:00N 53°58' W 130°12'5 9.2
2017-Nov-30 18:31N 53°54' W 130°08'147 8.4
2017-Nov-30 00:59N 51°51' W 127°56'5 9.7
2017-Nov-30 00:30N 51°46' W 127°56'5 9.9
2017-Nov-30 00:00N 51°41' W 127°55'5 9.9
2017-Nov-29 23:30N 51°36' W 127°53'21 9.6
2017-Nov-29 21:21N 51°16' W 127°52'3 9.9
2017-Nov-29 21:00N 51°12' W 127°51'5 9.8
2017-Nov-29 20:30N 51°08' W 127°48'510.4
2017-Nov-29 20:00N 51°04' W 127°42'510.0
2017-Nov-29 19:30N 51°01' W 127°36'5 9.6
2017-Nov-29 19:00N 50°58' W 127°31'5 9.4
2017-Nov-29 18:30N 50°55' W 127°25'5 9.2
2017-Nov-29 18:00N 50°52' W 127°19'5 9.5
2017-Nov-29 17:30N 50°50' W 127°12'5 9.0
2017-Nov-29 17:00N 50°48' W 127°06'6 8.7
2017-Nov-29 16:20N 50°44' W 126°59'4 8.8
2017-Nov-29 15:52N 50°41' W 126°54'6 8.7
2017-Nov-29 15:12N 50°37' W 126°47'310.0
2017-Nov-29 14:55N 50°36' W 126°44'5 9.0
2017-Nov-29 14:24N 50°32' W 126°40'4510.4
2017-Nov-29 10:03N 50°21' W 125°31'210.5
2017-Nov-29 09:50N 50°21' W 125°27'3 8.1
2017-Nov-29 09:30N 50°18' W 125°25'5 9.3
2017-Nov-29 09:00N 50°14' W 125°23'5 9.0
2017-Nov-29 08:30N 50°09' W 125°22'3 5.6
2017-Nov-29 08:00N 50°07' W 125°19'3 6.8
2017-Nov-29 07:30N 50°04' W 125°16'3 5.8
2017-Nov-29 07:00N 50°02' W 125°14'3 5.5
2017-Nov-29 06:30N 49°59' W 125°12'3 5.9
2017-Nov-29 05:59N 49°57' W 125°09'4 8.4
2017-Nov-29 05:30N 49°54' W 125°05'4 8.6
2017-Nov-29 05:00N 49°51' W 125°00'4 8.6
2017-Nov-29 04:30N 49°48' W 124°56'5 8.9
2017-Nov-29 04:00N 49°45' W 124°51'4 8.7
2017-Nov-29 03:30N 49°41' W 124°46'4 8.7
2017-Nov-29 03:00N 49°38' W 124°42'5 9.0
2017-Nov-29 02:28N 49°34' W 124°37'4 8.9
2017-Nov-29 02:00N 49°32' W 124°33'55 8.7
2017-Nov-28 19:42N 48°59' W 123°25'4 7.7
2017-Nov-28 19:10N 48°56' W 123°21'1 8.5
2017-Nov-28 19:00N 48°55' W 123°19'4 7.3
2017-Nov-28 18:30N 48°51' W 123°19'3 6.6
2017-Nov-28 18:00N 48°48' W 123°20'4 8.9
2017-Nov-28 17:30N 48°44' W 123°17'5 9.3
2017-Nov-28 17:00N 48°40' W 123°15'5 9.8
2017-Nov-28 16:30N 48°35' W 123°13'5 9.7
2017-Nov-28 16:00N 48°30' W 123°12'8 8.0
2017-Nov-28 15:00N 48°23' W 123°18'4 9.0
2017-Nov-28 14:30N 48°22' W 123°24'5 9.3
2017-Nov-28 14:00N 48°18' W 123°29'4 8.0
2017-Nov-28 13:27N 48°16' W 123°35'12 8.9
2017-Nov-28 12:05N 48°18' W 123°53'1 8.9
2017-Nov-28 12:00N 48°18' W 123°54'4 8.8
2017-Nov-28 11:30N 48°19' W 124°00'4 8.9
2017-Nov-28 11:00N 48°19' W 124°07'5 9.1
2017-Nov-28 10:30N 48°20' W 124°14'4 8.8
2017-Nov-28 10:00N 48°20' W 124°20'4 8.3
2017-Nov-28 09:30N 48°22' W 124°26'4 8.2
2017-Nov-28 09:00N 48°23' W 124°32'4 8.6
2017-Nov-28 08:30N 48°25' W 124°38'4 8.7
2017-Nov-28 08:00N 48°26' W 124°44'4 8.5
2017-Nov-28 07:30N 48°22' W 124°48'510.4
2017-Nov-28 07:00N 48°17' W 124°51'8010.0
2017-Nov-27 22:59N 46°60' W 124°22'510.3
2017-Nov-27 22:31N 46°55' W 124°20'5 9.4
2017-Nov-27 22:01N 46°50' W 124°19'6 9.4
2017-Nov-27 21:20N 46°44' W 124°18'3 8.8
2017-Nov-27 21:00N 46°41' W 124°18'5 9.4
2017-Nov-27 20:30N 46°36' W 124°17'5 9.1
2017-Nov-27 20:01N 46°32' W 124°16'4 9.0
2017-Nov-27 19:30N 46°28' W 124°15'5 9.0
2017-Nov-27 19:00N 46°23' W 124°14'4 7.8
2017-Nov-27 18:30N 46°19' W 124°13'3 6.5
2017-Nov-27 18:01N 46°16' W 124°11'4 7.4
2017-Nov-27 17:31N 46°15' W 124°06'4 8.4
2017-Nov-27 17:01N 46°14' W 123°60'5 9.7
2017-Nov-27 16:31N 46°11' W 123°54'2 3.2
2017-Nov-27 16:00N 46°11' W 123°52'0 0.0
2017-Nov-27 15:30N 46°11' W 123°52'0 0.0
2017-Nov-27 15:01N 46°11' W 123°52'0 0.0
2017-Nov-27 14:10N 46°11' W 123°52'0 0.0
2017-Nov-27 14:00N 46°11' W 123°52'0 0.0
2017-Nov-27 13:29N 46°11' W 123°52'0 0.0
2017-Nov-27 13:00N 46°11' W 123°52'0 0.0
2017-Nov-27 12:30N 46°11' W 123°52'0 0.0
2017-Nov-27 12:00N 46°11' W 123°52'0 0.0
2017-Nov-27 11:31N 46°11' W 123°52'0 0.0
2017-Nov-27 10:48N 46°11' W 123°52'0 0.0
2017-Nov-27 10:31N 46°11' W 123°52'0 0.0
2017-Nov-27 10:00N 46°11' W 123°52'0 0.0
2017-Nov-27 09:31N 46°11' W 123°52'0 0.0
2017-Nov-27 09:00N 46°11' W 123°52'0 0.0
2017-Nov-27 08:30N 46°11' W 123°52'0 0.0
2017-Nov-27 08:01N 46°11' W 123°52'0 0.0
2017-Nov-27 07:30N 46°11' W 123°52'0 0.0
2017-Nov-27 07:00N 46°11' W 123°52'0 0.0
2017-Nov-27 06:15N 46°11' W 123°52'0 0.0
2017-Nov-27 06:01N 46°11' W 123°52'0 0.0
2017-Nov-27 05:31N 46°11' W 123°52'0 0.0
2017-Nov-27 05:00N 46°11' W 123°52'0 0.0
2017-Nov-27 04:31N 46°11' W 123°52'0 0.0
2017-Nov-27 04:00N 46°11' W 123°52'0 0.0
2017-Nov-27 03:30N 46°11' W 123°52'0 0.0
2017-Nov-27 03:01N 46°11' W 123°52'0 0.0
2017-Nov-27 02:30N 46°11' W 123°52'0 0.0
2017-Nov-27 02:00N 46°11' W 123°52'0 0.0
2017-Nov-27 01:30N 46°11' W 123°52'0 0.0
2017-Nov-27 01:00N 46°11' W 123°52'0 0.0
2017-Nov-27 00:30N 46°11' W 123°52'0 0.0
2017-Nov-27 00:00N 46°11' W 123°52'0 0.0
2017-Nov-26 23:31N 46°11' W 123°52'0 0.0
2017-Nov-26 23:00N 46°11' W 123°52'0 0.0
2017-Nov-26 22:30N 46°11' W 123°52'0 0.0
2017-Nov-26 21:43N 46°11' W 123°52'0 0.1
2017-Nov-26 21:31N 46°11' W 123°52'0 0.0
2017-Nov-26 21:01N 46°11' W 123°52'0 0.0
2017-Nov-26 20:20N 46°11' W 123°52'0 0.0
2017-Nov-26 20:01N 46°11' W 123°52'0 0.0
2017-Nov-26 19:31N 46°11' W 123°52'0 0.0
2017-Nov-26 19:01N 46°11' W 123°52'0 0.0
2017-Nov-26 18:31N 46°11' W 123°52'  
Track history (hours):
 
Tides and Currents Weather Stations Pressure Air Temp Water Temp Dewpoint Dewpoint Depression Visibility Wind Speed Wind Dir Waves Ship Positions

Chellissa

Owner: CHELLISSA INC, CHARLESTON, OR. More information available from US FCC via Universal Licensing System and Coast Guard Vessel Documentation Center.

Last reported at 2017-Nov-30 21:43 UTC. Time now 2017-Dec-16 15:07 UTC.
Position N 54°22' W 130°36'.
Warning: this ship's position is 15 days out of date.

Length 28 m; draft 4 m.

Type: Fishing. MMSI: 367162190.

Date/timePositionNaut miles runAvg speedWind from/ knotsBaromVisibWave heightAir tempDewpointWater temp
2017-Nov-30 21:43N 54°22' W 130°36'311.2
2017-Nov-30 21:30N 54°20' W 130°35'510.8
2017-Nov-30 21:00N 54°15' W 130°31'510.5
2017-Nov-30 20:30N 54°10' W 130°27'510.3
2017-Nov-30 20:00N 54°06' W 130°21'5 9.9
2017-Nov-30 19:30N 54°03' W 130°15'510.2
2017-Nov-30 19:00N 53°58' W 130°12'5 9.2
2017-Nov-30 18:31N 53°54' W 130°08'147 8.4
2017-Nov-30 00:59N 51°51' W 127°56'5 9.7
2017-Nov-30 00:30N 51°46' W 127°56'5 9.9
2017-Nov-30 00:00N 51°41' W 127°55'5 9.9
2017-Nov-29 23:30N 51°36' W 127°53'21 9.6
2017-Nov-29 21:21N 51°16' W 127°52'3 9.9
2017-Nov-29 21:00N 51°12' W 127°51'5 9.8
2017-Nov-29 20:30N 51°08' W 127°48'510.4
2017-Nov-29 20:00N 51°04' W 127°42'510.0
2017-Nov-29 19:30N 51°01' W 127°36'5 9.6
2017-Nov-29 19:00N 50°58' W 127°31'5 9.4
2017-Nov-29 18:30N 50°55' W 127°25'5 9.2
2017-Nov-29 18:00N 50°52' W 127°19'5 9.5
2017-Nov-29 17:30N 50°50' W 127°12'5 9.0
2017-Nov-29 17:00N 50°48' W 127°06'6 8.7
2017-Nov-29 16:20N 50°44' W 126°59'4 8.8
2017-Nov-29 15:52N 50°41' W 126°54'6 8.7
2017-Nov-29 15:12N 50°37' W 126°47'310.0
2017-Nov-29 14:55N 50°36' W 126°44'5 9.0
2017-Nov-29 14:24N 50°32' W 126°40'4510.4
2017-Nov-29 10:03N 50°21' W 125°31'210.5
2017-Nov-29 09:50N 50°21' W 125°27'3 8.1
2017-Nov-29 09:30N 50°18' W 125°25'5 9.3
2017-Nov-29 09:00N 50°14' W 125°23'5 9.0
2017-Nov-29 08:30N 50°09' W 125°22'3 5.6
2017-Nov-29 08:00N 50°07' W 125°19'3 6.8
2017-Nov-29 07:30N 50°04' W 125°16'3 5.8
2017-Nov-29 07:00N 50°02' W 125°14'3 5.5
2017-Nov-29 06:30N 49°59' W 125°12'3 5.9
2017-Nov-29 05:59N 49°57' W 125°09'4 8.4
2017-Nov-29 05:30N 49°54' W 125°05'4 8.6
2017-Nov-29 05:00N 49°51' W 125°00'4 8.6
2017-Nov-29 04:30N 49°48' W 124°56'5 8.9
2017-Nov-29 04:00N 49°45' W 124°51'4 8.7
2017-Nov-29 03:30N 49°41' W 124°46'4 8.7
2017-Nov-29 03:00N 49°38' W 124°42'5 9.0
2017-Nov-29 02:28N 49°34' W 124°37'4 8.9
2017-Nov-29 02:00N 49°32' W 124°33'55 8.7
2017-Nov-28 19:42N 48°59' W 123°25'4 7.7
2017-Nov-28 19:10N 48°56' W 123°21'1 8.5
2017-Nov-28 19:00N 48°55' W 123°19'4 7.3
2017-Nov-28 18:30N 48°51' W 123°19'3 6.6
2017-Nov-28 18:00N 48°48' W 123°20'4 8.9
2017-Nov-28 17:30N 48°44' W 123°17'5 9.3
2017-Nov-28 17:00N 48°40' W 123°15'5 9.8
2017-Nov-28 16:30N 48°35' W 123°13'5 9.7
2017-Nov-28 16:00N 48°30' W 123°12'8 8.0
2017-Nov-28 15:00N 48°23' W 123°18'4 9.0
2017-Nov-28 14:30N 48°22' W 123°24'5 9.3
2017-Nov-28 14:00N 48°18' W 123°29'4 8.0
2017-Nov-28 13:27N 48°16' W 123°35'12 8.9
2017-Nov-28 12:05N 48°18' W 123°53'1 8.9
2017-Nov-28 12:00N 48°18' W 123°54'4 8.8
2017-Nov-28 11:30N 48°19' W 124°00'4 8.9
2017-Nov-28 11:00N 48°19' W 124°07'5 9.1
2017-Nov-28 10:30N 48°20' W 124°14'4 8.8
2017-Nov-28 10:00N 48°20' W 124°20'4 8.3
2017-Nov-28 09:30N 48°22' W 124°26'4 8.2
2017-Nov-28 09:00N 48°23' W 124°32'4 8.6
2017-Nov-28 08:30N 48°25' W 124°38'4 8.7
2017-Nov-28 08:00N 48°26' W 124°44'4 8.5
2017-Nov-28 07:30N 48°22' W 124°48'510.4
2017-Nov-28 07:00N 48°17' W 124°51'8010.0
2017-Nov-27 22:59N 46°60' W 124°22'510.3
2017-Nov-27 22:31N 46°55' W 124°20'5 9.4
2017-Nov-27 22:01N 46°50' W 124°19'6 9.4
2017-Nov-27 21:20N 46°44' W 124°18'3 8.8
2017-Nov-27 21:00N 46°41' W 124°18'5 9.4
2017-Nov-27 20:30N 46°36' W 124°17'5 9.1
2017-Nov-27 20:01N 46°32' W 124°16'4 9.0
2017-Nov-27 19:30N 46°28' W 124°15'5 9.0
2017-Nov-27 19:00N 46°23' W 124°14'4 7.8
2017-Nov-27 18:30N 46°19' W 124°13'3 6.5
2017-Nov-27 18:01N 46°16' W 124°11'4 7.4
2017-Nov-27 17:31N 46°15' W 124°06'4 8.4
2017-Nov-27 17:01N 46°14' W 123°60'5 9.7
2017-Nov-27 16:31N 46°11' W 123°54'2 3.2
2017-Nov-27 16:00N 46°11' W 123°52'0 0.0
2017-Nov-27 15:30N 46°11' W 123°52'0 0.0
2017-Nov-27 15:01N 46°11' W 123°52'0 0.0
2017-Nov-27 14:10N 46°11' W 123°52'0 0.0
2017-Nov-27 14:00N 46°11' W 123°52'0 0.0
2017-Nov-27 13:29N 46°11' W 123°52'0 0.0
2017-Nov-27 13:00N 46°11' W 123°52'0 0.0
2017-Nov-27 12:30N 46°11' W 123°52'0 0.0
2017-Nov-27 12:00N 46°11' W 123°52'0 0.0
2017-Nov-27 11:31N 46°11' W 123°52'0 0.0
2017-Nov-27 10:48N 46°11' W 123°52'0 0.0
2017-Nov-27 10:31N 46°11' W 123°52'0 0.0
2017-Nov-27 10:00N 46°11' W 123°52'0 0.0
2017-Nov-27 09:31N 46°11' W 123°52'0 0.0
2017-Nov-27 09:00N 46°11' W 123°52'0 0.0
2017-Nov-27 08:30N 46°11' W 123°52'0 0.0
2017-Nov-27 08:01N 46°11' W 123°52'0 0.0
2017-Nov-27 07:30N 46°11' W 123°52'0 0.0
2017-Nov-27 07:00N 46°11' W 123°52'0 0.0
2017-Nov-27 06:15N 46°11' W 123°52'0 0.0
2017-Nov-27 06:01N 46°11' W 123°52'0 0.0
2017-Nov-27 05:31N 46°11' W 123°52'0 0.0
2017-Nov-27 05:00N 46°11' W 123°52'0 0.0
2017-Nov-27 04:31N 46°11' W 123°52'0 0.0
2017-Nov-27 04:00N 46°11' W 123°52'0 0.0
2017-Nov-27 03:30N 46°11' W 123°52'0 0.0
2017-Nov-27 03:01N 46°11' W 123°52'0 0.0
2017-Nov-27 02:30N 46°11' W 123°52'0 0.0
2017-Nov-27 02:00N 46°11' W 123°52'0 0.0
2017-Nov-27 01:30N 46°11' W 123°52'0 0.0
2017-Nov-27 01:00N 46°11' W 123°52'0 0.0
2017-Nov-27 00:30N 46°11' W 123°52'0 0.0
2017-Nov-27 00:00N 46°11' W 123°52'0 0.0
2017-Nov-26 23:31N 46°11' W 123°52'0 0.0
2017-Nov-26 23:00N 46°11' W 123°52'0 0.0
2017-Nov-26 22:30N 46°11' W 123°52'0 0.0
2017-Nov-26 21:43N 46°11' W 123°52'0 0.1
2017-Nov-26 21:31N 46°11' W 123°52'0 0.0
2017-Nov-26 21:01N 46°11' W 123°52'0 0.0
2017-Nov-26 20:20N 46°11' W 123°52'0 0.0
2017-Nov-26 20:01N 46°11' W 123°52'0 0.0
2017-Nov-26 19:31N 46°11' W 123°52'0 0.0
2017-Nov-26 19:01N 46°11' W 123°52'0 0.0
2017-Nov-26 18:31N 46°11' W 123°52'  

Dump ship's entire track history